createdAt,value
2022-10-30T00:01:22.951Z,29.76
2022-10-30T00:03:50.991Z,29.75
2022-10-30T00:06:20.512Z,29.74
2022-10-30T00:08:49.082Z,29.72
2022-10-30T00:11:16.971Z,29.66
2022-10-30T00:13:45.034Z,29.63
2022-10-30T00:16:13.513Z,29.67
2022-10-30T00:18:41.753Z,29.73
2022-10-30T00:21:14.681Z,29.70
2022-10-30T00:23:52.421Z,29.59
2022-10-30T00:26:22.806Z,29.56
2022-10-30T00:28:54.976Z,29.54
2022-10-30T00:31:23.359Z,29.50
2022-10-30T00:33:53.126Z,29.52
2022-10-30T00:36:23.597Z,29.53
2022-10-30T00:38:51.550Z,29.48
2022-10-30T00:41:23.445Z,29.44
2022-10-30T00:43:52.543Z,29.36
2022-10-30T00:46:41.043Z,29.28
2022-10-30T00:49:19.701Z,29.29
2022-10-30T00:51:54.971Z,29.30
2022-10-30T00:54:24.447Z,29.37
2022-10-30T00:56:54.175Z,29.34
2022-10-30T00:59:30.218Z,29.35
2022-10-30T01:01:58.624Z,29.30
2022-10-30T01:04:29.963Z,29.28
2022-10-30T01:07:02.636Z,29.28
2022-10-30T01:09:31.222Z,29.24
2022-10-30T01:11:59.295Z,29.27
2022-10-30T01:14:27.480Z,29.28
2022-10-30T01:17:09.161Z,29.22
2022-10-30T01:19:43.075Z,29.21
2022-10-30T01:22:51.467Z,29.12
2022-10-30T01:25:38.582Z,28.98
2022-10-30T01:28:16.582Z,28.95
2022-10-30T01:31:21.864Z,28.86
2022-10-30T01:34:07.783Z,28.88
2022-10-30T01:36:42.920Z,28.80
2022-10-30T01:39:15.244Z,28.83
2022-10-30T01:41:43.473Z,28.85
2022-10-30T01:44:16.459Z,28.83
2022-10-30T01:46:53.438Z,28.90
2022-10-30T01:49:33.693Z,28.84
2022-10-30T01:52:28.685Z,28.84
2022-10-30T01:55:13.747Z,28.83
2022-10-30T01:57:48.548Z,28.67
2022-10-30T02:00:17.472Z,28.67
2022-10-30T02:02:45.891Z,28.67
2022-10-30T02:05:26.123Z,28.56
2022-10-30T02:07:54.201Z,28.62
2022-10-30T02:10:22.157Z,28.56
2022-10-30T02:12:51.255Z,28.55
2022-10-30T02:15:19.741Z,28.60
2022-10-30T02:17:48.028Z,28.53
2022-10-30T02:20:20.540Z,28.54
2022-10-30T02:22:52.967Z,28.58
2022-10-30T02:25:24.530Z,28.61
2022-10-30T02:27:52.502Z,28.60
2022-10-30T02:30:20.480Z,28.57
2022-10-30T02:32:49.577Z,28.54
2022-10-30T02:35:17.648Z,28.51
2022-10-30T02:37:49.010Z,28.45
2022-10-30T02:40:17.607Z,28.54
2022-10-30T02:42:45.669Z,28.50
2022-10-30T02:45:13.950Z,28.54
2022-10-30T02:47:42.435Z,28.53
2022-10-30T02:50:10.406Z,28.51
2022-10-30T02:52:38.480Z,28.43
2022-10-30T02:55:06.772Z,28.34
2022-10-30T02:57:34.693Z,28.35
2022-10-30T03:00:02.712Z,28.24
2022-10-30T03:02:32.018Z,28.22
2022-10-30T03:04:59.987Z,28.21
2022-10-30T03:07:28.275Z,28.21
2022-10-30T03:09:56.658Z,28.20
2022-10-30T03:12:24.576Z,28.18
2022-10-30T03:14:52.502Z,28.19
2022-10-30T03:17:20.477Z,28.20
2022-10-30T03:19:48.345Z,28.21
2022-10-30T03:22:16.220Z,28.19
2022-10-30T03:24:44.192Z,28.14
2022-10-30T03:27:12.166Z,28.12
2022-10-30T03:29:40.241Z,28.14
2022-10-30T03:32:11.741Z,28.13
2022-10-30T03:34:39.772Z,28.06
2022-10-30T03:37:07.641Z,28.04
2022-10-30T03:39:35.835Z,28.03
2022-10-30T03:42:04.817Z,28.00
2022-10-30T03:44:32.788Z,27.96
2022-10-30T03:47:00.928Z,27.93
2022-10-30T03:49:29.350Z,27.92
2022-10-30T03:51:57.323Z,27.95
2022-10-30T03:54:25.294Z,27.96
2022-10-30T03:56:53.168Z,28.00
2022-10-30T03:59:22.370Z,27.98
2022-10-30T04:01:50.614Z,28.01
2022-10-30T04:04:19.134Z,28.07
2022-10-30T04:06:48.125Z,28.04
2022-10-30T04:09:16.465Z,28.04
2022-10-30T04:11:44.815Z,27.92
2022-10-30T04:14:12.766Z,27.89
2022-10-30T04:16:40.844Z,27.88
2022-10-30T04:19:08.818Z,27.90
2022-10-30T04:21:36.792Z,27.89
2022-10-30T04:24:05.480Z,27.87
2022-10-30T04:26:33.455Z,27.82
2022-10-30T04:29:01.427Z,27.87
2022-10-30T04:31:29.402Z,27.84
2022-10-30T04:33:57.376Z,27.89
2022-10-30T04:36:25.348Z,27.88
2022-10-30T04:38:53.527Z,27.88
2022-10-30T04:41:21.927Z,27.82
2022-10-30T04:43:50.303Z,27.86
2022-10-30T04:46:18.576Z,27.84
2022-10-30T04:48:46.552Z,27.79
2022-10-30T04:51:14.503Z,27.81
2022-10-30T04:53:42.803Z,27.76
2022-10-30T04:56:10.881Z,27.82
2022-10-30T04:58:38.854Z,27.86
2022-10-30T05:01:07.796Z,27.85
2022-10-30T05:03:36.131Z,27.77
2022-10-30T05:06:17.559Z,27.74
2022-10-30T05:08:45.483Z,27.70
2022-10-30T05:11:13.558Z,27.72
2022-10-30T05:13:41.635Z,27.54
2022-10-30T05:16:09.815Z,27.52
2022-10-30T05:18:37.687Z,27.48
2022-10-30T05:21:06.071Z,27.43
2022-10-30T05:23:33.939Z,27.43
2022-10-30T05:26:02.525Z,27.41
2022-10-30T05:28:30.936Z,27.40
2022-10-30T05:30:58.886Z,27.44
2022-10-30T05:33:26.752Z,27.46
2022-10-30T05:35:54.814Z,27.40
2022-10-30T05:38:22.804Z,27.40
2022-10-30T05:40:50.881Z,27.43
2022-10-30T05:43:19.366Z,27.51
2022-10-30T05:45:49.418Z,27.52
2022-10-30T05:48:17.362Z,27.51
2022-10-30T05:50:45.757Z,27.45
2022-10-30T05:53:13.921Z,27.41
2022-10-30T05:55:42.098Z,27.34
2022-10-30T05:58:10.598Z,27.30
2022-10-30T06:00:38.613Z,27.28
2022-10-30T06:03:09.734Z,27.25
2022-10-30T06:05:38.130Z,27.26
2022-10-30T06:08:07.493Z,27.22
2022-10-30T06:10:35.568Z,27.18
2022-10-30T06:13:06.580Z,27.15
2022-10-30T06:15:34.483Z,27.16
2022-10-30T06:18:03.207Z,27.19
2022-10-30T06:20:32.075Z,27.22
2022-10-30T06:23:01.783Z,27.18
2022-10-30T06:25:36.414Z,27.14
2022-10-30T06:28:11.242Z,27.12
2022-10-30T06:30:39.517Z,27.12
2022-10-30T06:33:07.801Z,27.09
2022-10-30T06:35:35.771Z,27.10
2022-10-30T06:38:04.981Z,27.12
2022-10-30T06:40:33.055Z,27.08
2022-10-30T06:43:01.425Z,27.07
2022-10-30T06:45:30.125Z,27.00
2022-10-30T06:47:59.959Z,26.99
2022-10-30T06:50:28.321Z,27.00
2022-10-30T06:52:56.400Z,27.01
2022-10-30T06:55:24.579Z,27.04
2022-10-30T06:57:57.655Z,26.98
2022-10-30T07:00:25.950Z,27.00
2022-10-30T07:03:02.117Z,27.04
2022-10-30T07:05:30.553Z,27.08
2022-10-30T07:07:58.976Z,27.03
2022-10-30T07:10:27.264Z,27.01
2022-10-30T07:12:56.948Z,27.03
2022-10-30T07:15:26.361Z,27.10
2022-10-30T07:18:00.102Z,27.14
2022-10-30T07:20:30.685Z,27.24
2022-10-30T07:22:59.610Z,27.30
2022-10-30T07:25:28.199Z,27.37
2022-10-30T07:27:57.805Z,27.41
2022-10-30T07:33:02.440Z,27.52
2022-10-30T07:35:33.343Z,27.63
2022-10-30T07:38:06.180Z,27.76
2022-10-30T07:40:34.580Z,27.83
2022-10-30T07:43:04.478Z,27.91
2022-10-30T07:45:33.284Z,28.01
2022-10-30T07:48:01.565Z,28.15
2022-10-30T07:50:30.556Z,28.28
2022-10-30T07:52:58.937Z,28.43
2022-10-30T07:55:27.220Z,28.54
2022-10-30T07:57:55.483Z,28.65
2022-10-30T08:00:24.085Z,28.81
2022-10-30T08:02:56.447Z,28.94
2022-10-30T08:05:28.768Z,29.10
2022-10-30T08:07:58.498Z,29.28
2022-10-30T08:10:27.201Z,29.39
2022-10-30T08:12:55.521Z,29.49
2022-10-30T08:15:23.706Z,29.56
2022-10-30T08:17:52.491Z,29.76
2022-10-30T08:20:23.019Z,30.00
2022-10-30T08:22:52.119Z,30.15
2022-10-30T08:25:22.312Z,30.30
2022-10-30T08:28:01.277Z,30.48
2022-10-30T08:30:32.790Z,30.71
2022-10-30T08:33:10.409Z,30.80
2022-10-30T08:35:38.297Z,30.96
2022-10-30T08:38:06.156Z,31.05
2022-10-30T08:40:34.649Z,31.19
2022-10-30T08:43:02.614Z,31.24
2022-10-30T08:45:31.354Z,31.33
2022-10-30T08:48:02.550Z,31.35
2022-10-30T08:50:32.444Z,31.44
2022-10-30T08:53:02.589Z,31.54
2022-10-30T08:55:32.610Z,31.65
2022-10-30T08:58:00.590Z,31.72
2022-10-30T09:00:29.275Z,31.85
2022-10-30T09:02:58.538Z,32.01
2022-10-30T09:05:26.858Z,32.16
2022-10-30T09:07:59.002Z,32.37
2022-10-30T09:10:28.025Z,32.63
2022-10-30T09:12:57.747Z,32.75
2022-10-30T09:15:26.871Z,33.01
2022-10-30T09:17:56.766Z,33.24
2022-10-30T09:20:25.429Z,33.43
2022-10-30T09:22:53.833Z,33.61
2022-10-30T09:25:21.705Z,33.74
2022-10-30T09:27:49.674Z,33.86
2022-10-30T09:30:17.729Z,33.95
2022-10-30T09:32:48.936Z,34.11
2022-10-30T09:35:19.430Z,34.20
2022-10-30T09:37:47.339Z,34.33
2022-10-30T09:40:46.286Z,34.43
2022-10-30T09:43:14.253Z,34.48
2022-10-30T09:45:51.437Z,34.42
2022-10-30T09:48:22.201Z,34.29
2022-10-30T09:50:56.292Z,34.28
2022-10-30T09:53:36.030Z,34.27
2022-10-30T09:56:15.980Z,34.33
2022-10-30T09:58:52.997Z,34.40
2022-10-30T10:01:29.614Z,34.59
2022-10-30T10:04:27.008Z,34.69
2022-10-30T10:07:14.329Z,34.75
2022-10-30T10:09:44.755Z,34.87
2022-10-30T10:12:23.946Z,35.01
2022-10-30T10:14:52.943Z,35.05
2022-10-30T10:17:31.969Z,35.10
2022-10-30T10:20:01.587Z,34.97
2022-10-30T10:22:48.199Z,35.05
2022-10-30T10:25:19.323Z,35.06
2022-10-30T10:28:13.523Z,35.01
2022-10-30T10:30:54.566Z,35.09
2022-10-30T10:33:42.293Z,35.19
2022-10-30T10:36:44.461Z,35.34
2022-10-30T10:39:18.664Z,35.44
2022-10-30T10:41:57.998Z,35.41
2022-10-30T10:45:04.441Z,35.52
2022-10-30T10:47:53.643Z,35.69
2022-10-30T10:50:24.891Z,35.81
2022-10-30T10:53:26.459Z,35.83
2022-10-30T10:55:59.569Z,35.88
2022-10-30T10:58:33.591Z,35.88
2022-10-30T11:01:01.827Z,35.91
2022-10-30T11:03:56.453Z,35.86
2022-10-30T11:06:31.998Z,35.89
2022-10-30T11:09:17.263Z,35.85
2022-10-30T11:11:46.906Z,35.92
2022-10-30T11:14:20.896Z,36.05
2022-10-30T11:17:12.914Z,36.08
2022-10-30T11:19:40.953Z,35.82
2022-10-30T11:22:20.635Z,35.69
2022-10-30T11:24:48.704Z,35.70
2022-10-30T11:27:28.059Z,35.37
2022-10-30T11:30:02.052Z,35.38
2022-10-30T11:32:33.233Z,35.45
2022-10-30T11:35:02.663Z,35.55
2022-10-30T11:37:33.446Z,35.53
2022-10-30T11:40:22.712Z,35.57
2022-10-30T11:42:58.199Z,35.74
2022-10-30T11:45:32.738Z,35.74
2022-10-30T11:48:03.030Z,35.78
2022-10-30T11:50:32.813Z,35.44
2022-10-30T11:53:10.705Z,35.16
2022-10-30T11:55:46.824Z,35.28
2022-10-30T11:58:31.219Z,35.50
2022-10-30T12:01:06.528Z,35.78
2022-10-30T12:03:40.418Z,35.95
2022-10-30T12:06:18.161Z,36.20
2022-10-30T12:09:21.296Z,36.35
2022-10-30T12:11:50.131Z,36.35
2022-10-30T12:14:21.498Z,36.22
2022-10-30T12:16:52.425Z,36.02
2022-10-30T12:19:22.549Z,36.06
2022-10-30T12:21:53.073Z,35.75
2022-10-30T12:24:34.451Z,35.62
2022-10-30T12:27:12.148Z,35.68
2022-10-30T12:30:08.298Z,35.57
2022-10-30T12:32:48.225Z,35.79
2022-10-30T12:35:22.614Z,35.94
2022-10-30T12:37:54.292Z,36.07
2022-10-30T12:40:27.379Z,36.16
2022-10-30T12:43:15.586Z,36.19
2022-10-30T12:45:50.863Z,35.97
2022-10-30T12:48:28.059Z,35.92
2022-10-30T12:51:09.109Z,35.98
2022-10-30T12:53:52.200Z,35.84
2022-10-30T12:56:31.971Z,35.86
2022-10-30T12:59:35.461Z,36.03
2022-10-30T13:02:19.701Z,36.15
2022-10-30T13:04:53.360Z,36.12
2022-10-30T13:08:04.775Z,36.08
2022-10-30T13:10:41.750Z,36.05
2022-10-30T13:13:30.088Z,35.86
2022-10-30T13:16:01.238Z,35.77
2022-10-30T13:18:29.817Z,35.77
2022-10-30T13:21:03.425Z,35.45
2022-10-30T13:23:43.469Z,35.25
2022-10-30T13:26:47.980Z,35.19
2022-10-30T13:29:43.783Z,35.20
2022-10-30T13:32:21.478Z,35.26
2022-10-30T13:35:07.972Z,35.16
2022-10-30T13:37:41.990Z,35.13
2022-10-30T13:40:31.857Z,35.09
2022-10-30T13:43:18.458Z,35.02
2022-10-30T13:46:20.204Z,34.99
2022-10-30T13:48:51.398Z,34.93
2022-10-30T13:51:38.354Z,34.78
2022-10-30T13:54:53.857Z,34.76
2022-10-30T13:57:38.159Z,34.76
2022-10-30T14:00:22.256Z,34.76
2022-10-30T14:03:08.260Z,34.67
2022-10-30T14:05:51.712Z,34.51
2022-10-30T14:09:11.465Z,34.36
2022-10-30T14:11:39.590Z,34.40
2022-10-30T14:14:13.146Z,34.38
2022-10-30T14:16:45.817Z,34.29
2022-10-30T14:19:16.157Z,34.29
2022-10-30T14:21:57.835Z,34.26
2022-10-30T14:24:32.153Z,34.31
2022-10-30T14:27:03.301Z,34.36
2022-10-30T14:29:33.950Z,34.40
2022-10-30T14:32:13.878Z,34.30
2022-10-30T14:34:56.776Z,34.18
2022-10-30T14:37:25.489Z,34.05
2022-10-30T14:39:55.368Z,34.18
2022-10-30T14:42:31.590Z,34.16
2022-10-30T14:45:22.914Z,34.18
2022-10-30T14:48:09.544Z,34.13
2022-10-30T14:51:03.751Z,34.19
2022-10-30T14:53:34.481Z,34.28
2022-10-30T14:56:26.908Z,34.34
2022-10-30T14:59:13.155Z,34.31
2022-10-30T15:02:02.591Z,34.40
2022-10-30T15:05:21.949Z,34.39
2022-10-30T15:07:56.392Z,34.35
2022-10-30T15:10:32.864Z,34.28
2022-10-30T15:13:10.125Z,34.12
2022-10-30T15:15:38.976Z,34.08
2022-10-30T15:18:16.877Z,34.04
2022-10-30T15:20:51.196Z,33.99
2022-10-30T15:23:27.456Z,33.99
2022-10-30T15:26:00.124Z,34.02
2022-10-30T15:28:35.900Z,34.00
2022-10-30T15:31:21.154Z,33.94
2022-10-30T15:33:49.128Z,33.93
2022-10-30T15:36:17.717Z,33.89
2022-10-30T15:39:02.920Z,34.01
2022-10-30T15:41:32.188Z,34.02
2022-10-30T15:44:00.774Z,34.05
2022-10-30T15:46:28.851Z,33.95
2022-10-30T15:48:56.823Z,34.04
2022-10-30T15:51:24.798Z,34.07
2022-10-30T15:54:02.910Z,34.11
2022-10-30T15:57:08.270Z,34.13
2022-10-30T15:59:33.027Z,34.11
2022-10-30T16:02:01.427Z,34.04
2022-10-30T16:04:36.184Z,33.82
2022-10-30T16:07:19.363Z,33.71
2022-10-30T16:09:57.673Z,33.70
2022-10-30T16:12:27.381Z,33.67
2022-10-30T16:14:57.310Z,33.58
2022-10-30T16:17:26.733Z,33.55
2022-10-30T16:19:59.752Z,33.57
2022-10-30T16:22:31.660Z,33.48
2022-10-30T16:25:00.350Z,33.35
2022-10-30T16:27:28.425Z,33.35
2022-10-30T16:29:59.167Z,33.35
2022-10-30T16:32:31.644Z,33.20
2022-10-30T16:35:01.771Z,33.13
2022-10-30T16:37:38.205Z,33.14
2022-10-30T16:40:16.630Z,33.10
2022-10-30T16:42:56.383Z,32.98
2022-10-30T16:45:44.518Z,32.94
2022-10-30T16:48:23.643Z,32.87
2022-10-30T16:50:51.888Z,32.87
2022-10-30T16:53:24.964Z,32.82
2022-10-30T16:55:54.529Z,32.80
2022-10-30T16:58:30.079Z,32.73
2022-10-30T17:01:05.808Z,32.63
2022-10-30T17:03:40.837Z,32.68
2022-10-30T17:06:44.547Z,32.72
2022-10-30T17:09:25.979Z,32.77
2022-10-30T17:12:18.659Z,32.72
2022-10-30T17:14:48.188Z,32.82
2022-10-30T17:17:28.369Z,32.79
2022-10-30T17:20:00.015Z,32.75
2022-10-30T17:22:29.031Z,32.71
2022-10-30T17:24:59.631Z,32.69
2022-10-30T17:27:46.461Z,32.69
2022-10-30T17:30:33.902Z,32.72
2022-10-30T17:33:04.426Z,32.72
2022-10-30T17:35:34.291Z,32.69
2022-10-30T17:38:03.088Z,32.68
2022-10-30T17:40:31.460Z,32.67
2022-10-30T17:42:59.444Z,32.66
2022-10-30T17:45:27.405Z,32.60
2022-10-30T17:47:55.381Z,32.59
2022-10-30T17:50:23.333Z,32.53
2022-10-30T17:52:51.227Z,32.41
2022-10-30T17:55:25.035Z,32.30
2022-10-30T17:57:53.318Z,32.33
2022-10-30T18:00:21.342Z,32.36
2022-10-30T18:02:49.465Z,32.41
2022-10-30T18:05:21.026Z,32.30
2022-10-30T18:10:18.098Z,32.14
2022-10-30T18:12:46.061Z,32.16
2022-10-30T18:15:24.203Z,32.18
2022-10-30T18:17:52.144Z,32.18
2022-10-30T18:20:20.858Z,32.17
2022-10-30T18:22:49.217Z,32.13
2022-10-30T18:25:23.642Z,32.06
2022-10-30T18:27:51.714Z,32.01
2022-10-30T18:30:20.231Z,32.01
2022-10-30T18:32:48.989Z,31.99
2022-10-30T18:35:35.226Z,31.92
2022-10-30T18:38:04.482Z,31.91
2022-10-30T18:40:32.965Z,31.75
2022-10-30T18:43:02.151Z,31.52
2022-10-30T18:45:35.733Z,31.60
2022-10-30T18:48:04.608Z,31.61
2022-10-30T18:50:32.945Z,31.58
2022-10-30T18:53:01.839Z,31.68
2022-10-30T18:55:38.358Z,31.72
2022-10-30T18:58:08.022Z,31.79
2022-10-30T19:00:58.090Z,31.83
2022-10-30T19:03:25.664Z,31.88
2022-10-30T19:05:53.841Z,31.91
2022-10-30T19:08:21.821Z,31.99
2022-10-30T19:10:49.848Z,32.12
2022-10-30T19:13:22.695Z,32.15
2022-10-30T19:15:58.968Z,32.30
2022-10-30T19:18:28.468Z,32.31
2022-10-30T19:21:05.838Z,32.31
2022-10-30T19:23:36.057Z,32.39
2022-10-30T19:26:04.289Z,32.38
2022-10-30T19:28:32.415Z,32.34
2022-10-30T19:31:00.387Z,32.34
2022-10-30T19:33:28.361Z,32.30
2022-10-30T19:35:58.738Z,32.24
2022-10-30T19:38:28.298Z,32.33
2022-10-30T19:40:56.280Z,32.38
2022-10-30T19:43:25.285Z,32.42
2022-10-30T19:45:57.013Z,32.43
2022-10-30T19:48:55.640Z,32.46
2022-10-30T19:51:15.899Z,32.55
2022-10-30T19:53:45.889Z,32.59
2022-10-30T19:56:15.614Z,32.55
2022-10-30T19:58:43.672Z,32.51
2022-10-30T20:01:12.912Z,32.47
2022-10-30T20:03:40.896Z,32.50
2022-10-30T20:06:11.825Z,32.52
2022-10-30T20:08:40.310Z,32.51
2022-10-30T20:11:08.677Z,32.51
2022-10-30T20:13:36.592Z,32.59
2022-10-30T20:16:05.826Z,32.58
2022-10-30T20:18:35.896Z,32.61
2022-10-30T20:21:07.255Z,32.63
2022-10-30T20:23:35.220Z,32.76
2022-10-30T20:26:07.853Z,32.73
2022-10-30T20:28:41.809Z,32.62
2022-10-30T20:31:12.248Z,32.52
2022-10-30T20:33:40.308Z,32.50
2022-10-30T20:36:10.435Z,32.51
2022-10-30T20:38:38.510Z,32.48
2022-10-30T20:41:07.403Z,32.51
2022-10-30T20:43:39.469Z,32.47
2022-10-30T20:46:09.667Z,32.52
2022-10-30T20:48:37.566Z,32.42
2022-10-30T20:51:06.384Z,32.39
2022-10-30T20:53:34.648Z,32.36
2022-10-30T20:56:03.329Z,32.39
2022-10-30T20:58:31.610Z,32.42
2022-10-30T21:01:00.788Z,32.39
2022-10-30T21:03:29.194Z,32.42
2022-10-30T21:06:01.932Z,32.32
2022-10-30T21:08:31.177Z,32.29
2022-10-30T21:11:00.810Z,32.28
2022-10-30T21:13:29.596Z,32.26
2022-10-30T21:16:01.731Z,32.24
2022-10-30T21:18:29.941Z,32.22
2022-10-30T21:21:02.516Z,32.18
2022-10-30T21:23:30.392Z,32.09
2022-10-30T21:26:03.783Z,32.05
2022-10-30T21:28:31.786Z,32.11
2022-10-30T21:31:05.569Z,32.12
2022-10-30T21:33:36.172Z,32.14
2022-10-30T21:36:12.956Z,32.14
2022-10-30T21:38:42.359Z,32.14
2022-10-30T21:41:12.405Z,32.10
2022-10-30T21:43:40.571Z,32.05
2022-10-30T21:46:12.850Z,31.99
2022-10-30T21:48:41.022Z,31.94
2022-10-30T21:51:14.576Z,31.87
2022-10-30T21:53:43.209Z,31.92
2022-10-30T21:56:16.355Z,31.87
2022-10-30T21:58:45.093Z,31.83
2022-10-30T22:01:25.370Z,31.85
2022-10-30T22:03:53.525Z,31.82
2022-10-30T22:06:22.625Z,31.75
2022-10-30T22:08:52.646Z,31.74
2022-10-30T22:11:22.147Z,31.74
2022-10-30T22:14:01.490Z,31.68
2022-10-30T22:16:31.097Z,31.60
2022-10-30T22:18:59.480Z,31.56
2022-10-30T22:21:27.964Z,31.52
2022-10-30T22:23:56.043Z,31.47
2022-10-30T22:26:24.936Z,31.42
2022-10-30T22:28:58.813Z,31.31
2022-10-30T22:31:29.175Z,31.25
2022-10-30T22:34:00.014Z,31.18
2022-10-30T22:36:33.124Z,31.14
2022-10-30T22:39:01.186Z,31.14
2022-10-30T22:41:34.430Z,31.21
2022-10-30T22:44:10.841Z,31.24
2022-10-30T22:46:38.717Z,31.21
2022-10-30T22:49:07.605Z,31.17
2022-10-30T22:51:37.825Z,31.11
2022-10-30T22:54:07.849Z,31.08
2022-10-30T22:56:36.947Z,31.07
2022-10-30T22:59:07.939Z,31.11
2022-10-30T23:01:37.110Z,31.14
2022-10-30T23:04:06.499Z,31.09
2022-10-30T23:06:36.177Z,31.06
2022-10-30T23:09:07.142Z,31.04
2022-10-30T23:11:35.230Z,30.96
2022-10-30T23:14:03.209Z,31.01
2022-10-30T23:16:31.480Z,31.02
2022-10-30T23:19:01.196Z,30.97
2022-10-30T23:21:31.228Z,30.97
2022-10-30T23:23:59.802Z,30.89
2022-10-30T23:26:31.413Z,30.76
2022-10-30T23:29:02.302Z,30.74
2022-10-30T23:31:33.959Z,30.77
2022-10-30T23:34:04.623Z,30.74
2022-10-30T23:36:32.811Z,30.65
2022-10-30T23:39:02.618Z,30.74
2022-10-30T23:41:31.973Z,30.55
2022-10-30T23:44:05.854Z,30.45
2022-10-30T23:46:35.605Z,30.50
2022-10-30T23:49:04.306Z,30.48
2022-10-30T23:51:33.306Z,30.44
2022-10-30T23:54:01.559Z,30.41
2022-10-30T23:56:29.765Z,30.35
2022-10-30T23:58:58.149Z,30.32
